Time;durP1;ratioP1;P1;durP2;ratioP2;P2;SDS_P1;SDS_P2;PMS_P1;PMS_P2;Temp;Humidity;BMP_temperature;BMP_pressure;BME280_temperature;BME280_humidity;BME280_pressure;Samples;Min_cycle;Max_cycle;Signal;HPM_P1;HPM_P2
2022/06/20 00:02:19;;;;;;;33.00;8.52;;;;;;;11.57;95.50;101241.97;5093239;28;20371;-45
2022/06/20 00:04:46;;;;;;;32.95;7.65;;;;;;;11.53;95.01;101252.22;5093768;28;20141;-45
2022/06/20 00:07:12;;;;;;;29.27;7.73;;;;;;;11.49;94.81;101250.38;5092542;28;20028;-47
2022/06/20 00:09:38;;;;;;;33.20;7.55;;;;;;;11.48;94.37;101258.94;5093458;28;20017;-46
2022/06/20 00:12:04;;;;;;;26.77;7.40;;;;;;;11.46;94.82;101252.81;5093116;28;20031;-45
2022/06/20 00:14:29;;;;;;;32.85;7.95;;;;;;;11.46;94.75;101239.91;5092605;28;20024;-44
2022/06/20 00:16:54;;;;;;;31.85;8.13;;;;;;;11.42;94.85;101243.22;5093442;28;20353;-45
2022/06/20 00:19:20;;;;;;;35.30;7.60;;;;;;;11.40;94.98;101257.81;5093264;28;20024;-45
2022/06/20 00:21:45;;;;;;;28.20;7.28;;;;;;;11.39;95.06;101255.16;5092527;28;20383;-44
2022/06/20 00:24:10;;;;;;;29.42;6.50;;;;;;;11.40;94.26;101254.34;5093078;28;20121;-46
2022/06/20 00:26:36;;;;;;;31.92;7.15;;;;;;;11.41;94.95;101262.13;5093050;28;20016;-44
2022/06/20 00:29:04;;;;;;;28.50;7.35;;;;;;;11.41;94.93;101276.75;5092206;28;20027;-45
2022/06/20 00:31:29;;;;;;;42.40;6.63;;;;;;;11.45;94.48;101300.13;5092987;28;20027;-45
2022/06/20 00:33:54;;;;;;;29.05;6.90;;;;;;;11.49;94.77;101319.16;5093097;28;20028;-45
2022/06/20 00:36:19;;;;;;;25.45;6.15;;;;;;;11.51;94.39;101320.09;5092202;28;20024;-45
2022/06/20 00:38:51;;;;;;;31.77;6.95;;;;;;;11.51;94.18;101320.97;5092941;28;20024;-45
2022/06/20 00:41:22;;;;;;;30.45;6.00;;;;;;;11.56;93.23;101343.50;5092782;28;20055;-48
2022/06/20 00:43:51;;;;;;;27.63;6.38;;;;;;;11.59;94.20;101357.34;5092378;28;20032;-46
2022/06/20 00:46:39;;;;;;;22.92;6.40;;;;;;;11.61;94.20;101373.78;5093409;28;20073;-45
2022/06/20 00:49:17;;;;;;;33.72;6.53;;;;;;;11.67;94.25;101393.75;5092021;28;20475;-46
2022/06/20 00:52:03;;;;;;;27.35;6.80;;;;;;;11.72;95.08;101423.19;5092911;28;20036;-47
2022/06/20 00:54:37;;;;;;;23.60;6.20;;;;;;;11.76;95.77;101450.91;5092942;28;20032;-46
2022/06/20 00:57:10;;;;;;;24.83;7.40;;;;;;;11.82;96.73;101486.38;5091687;28;20081;-46
2022/06/20 00:59:39;;;;;;;34.35;7.38;;;;;;;11.84;97.39;101495.94;5092885;28;20024;-45
2022/06/20 01:02:06;;;;;;;24.92;6.85;;;;;;;11.89;95.94;101492.63;5092514;28;20377;-47
2022/06/20 01:04:48;;;;;;;30.15;7.40;;;;;;;11.92;95.54;101478.13;5092201;28;20051;-45
2022/06/20 01:07:21;;;;;;;30.38;6.95;;;;;;;11.91;95.71;101454.84;5092711;28;20032;-45
2022/06/20 01:09:50;;;;;;;22.02;6.55;;;;;;;11.89;95.81;101435.81;5092055;28;20031;-45
2022/06/20 01:12:19;;;;;;;25.77;6.47;;;;;;;11.87;95.98;101430.59;5093670;28;20047;-45
2022/06/20 01:14:45;;;;;;;25.48;7.30;;;;;;;11.88;95.71;101418.56;5096725;28;20372;-45
2022/06/20 01:17:31;;;;;;;22.30;6.68;;;;;;;11.88;95.72;101403.97;5095947;28;20525;-46
2022/06/20 01:20:07;;;;;;;31.35;7.03;;;;;;;11.85;96.44;101396.97;5096587;28;20055;-45
2022/06/20 01:22:39;;;;;;;29.67;7.70;;;;;;;11.84;96.60;101387.47;5096630;28;20051;-46
2022/06/20 01:25:38;;;;;;;26.83;7.15;;;;;;;11.83;96.76;101398.63;5095726;28;20048;-45
2022/06/20 01:28:07;;;;;;;25.38;6.95;;;;;;;11.74;97.00;101382.84;5096352;28;20480;-45
2022/06/20 01:30:37;;;;;;;27.80;6.53;;;;;;;11.66;97.04;101364.50;5096720;28;20024;-46
2022/06/20 01:33:03;;;;;;;20.48;6.68;;;;;;;11.59;97.18;101352.19;5095652;28;20051;-46
2022/06/20 01:38:15;;;;;;;25.48;6.88;;;;;;;11.41;97.28;101369.66;5095710;28;20061;-47
2022/06/20 01:42:18;;;;;;;;;;;;;;;11.48;94.94;101357.00;5096841;28;20024;-45
2022/06/20 01:43:30;;;;;;;30.05;7.15;;;;;;;11.31;97.55;101358.13;5096168;28;20417;-47
2022/06/20 01:45:59;;;;;;;25.25;7.47;;;;;;;11.28;98.61;101347.69;5095217;28;20036;-44
2022/06/20 01:48:30;;;;;;;25.10;9.07;;;;;;;11.22;99.05;101334.59;5096200;28;20016;-45
2022/06/20 01:50:56;;;;;;;27.33;7.82;;;;;;;11.15;98.89;101331.78;5095963;28;20392;-45
2022/06/20 01:53:27;;;;;;;29.88;9.27;;;;;;;11.13;98.62;101322.22;5095168;28;20381;-45
2022/06/20 01:55:55;;;;;;;32.75;8.27;;;;;;;11.07;98.82;101330.66;5096089;28;20024;-45
2022/06/20 01:58:33;;;;;;;26.65;7.43;;;;;;;11.07;99.04;101314.31;5095617;28;20068;-45
2022/06/20 02:01:00;;;;;;;35.50;9.25;;;;;;;11.05;98.80;101327.13;5095096;28;20081;-45
2022/06/20 02:03:26;;;;;;;31.50;7.95;;;;;;;11.05;98.23;101321.97;5095903;28;20028;-44
2022/06/20 02:05:55;;;;;;;34.78;8.32;;;;;;;11.02;98.21;101317.56;5095718;28;20420;-44
2022/06/20 02:08:23;;;;;;;37.67;8.48;;;;;;;11.03;98.34;101315.91;5094942;28;20040;-44
2022/06/20 02:11:05;;;;;;;27.75;7.75;;;;;;;11.02;98.23;101316.72;5095739;28;20019;-45
2022/06/20 02:13:37;;;;;;;31.63;7.55;;;;;;;10.98;98.79;101312.28;5094982;28;20031;-44
2022/06/20 02:16:06;;;;;;;27.48;8.13;;;;;;;10.94;98.84;101297.53;5095629;28;20154;-45
2022/06/20 02:18:35;;;;;;;23.40;7.30;;;;;;;10.93;99.03;101299.22;5095543;28;20517;-46
2022/06/20 02:21:04;;;;;;;31.60;8.60;;;;;;;10.93;99.18;101293.19;5094440;28;20095;-46
2022/06/20 02:23:32;;;;;;;25.92;7.72;;;;;;;10.93;98.34;101280.28;5095148;28;20536;-44
2022/06/20 02:26:01;;;;;;;24.95;7.95;;;;;;;10.95;98.26;101276.94;5095167;28;20024;-45
2022/06/20 02:28:34;;;;;;;29.10;8.20;;;;;;;10.96;98.39;101273.53;5094581;28;20060;-45
2022/06/20 02:30:59;;;;;;;26.50;7.55;;;;;;;10.96;97.71;101272.66;5095215;28;20031;-47
2022/06/20 02:33:29;;;;;;;23.10;7.15;;;;;;;10.97;97.48;101258.94;5095236;28;20024;-45
2022/06/20 02:35:57;;;;;;;29.33;8.02;;;;;;;10.98;96.78;101256.41;5094354;28;20024;-45
2022/06/20 02:38:23;;;;;;;21.15;7.53;;;;;;;10.99;96.51;101262.44;5095298;28;20070;-44
2022/06/20 02:40:49;;;;;;;23.52;7.20;;;;;;;10.98;96.81;101265.84;5095183;28;20032;-45
2022/06/20 02:43:19;;;;;;;20.35;6.90;;;;;;;10.96;97.08;101267.50;5094184;28;20495;-45
2022/06/20 02:45:45;;;;;;;32.47;7.43;;;;;;;10.96;96.87;101267.50;5095215;28;20020;-45
2022/06/20 02:48:13;;;;;;;26.92;7.35;;;;;;;10.92;96.35;101261.34;5094046;28;20053;-46
2022/06/20 02:50:45;;;;;;;25.58;7.00;;;;;;;10.91;96.54;101258.72;5095185;28;20050;-45
2022/06/20 02:53:19;;;;;;;30.45;6.80;;;;;;;10.89;96.01;101250.06;5094881;28;20039;-45
2022/06/20 02:55:46;;;;;;;26.25;6.90;;;;;;;10.87;95.97;101239.66;5094283;28;20102;-45
2022/06/20 02:58:18;;;;;;;30.40;8.90;;;;;;;10.86;96.18;101243.97;5094458;28;20098;-46
2022/06/20 03:00:49;;;;;;;25.83;8.20;;;;;;;10.86;96.03;101225.06;5094656;28;20028;-46
2022/06/20 03:03:30;;;;;;;31.20;6.65;;;;;;;10.86;95.67;101220.75;5094125;28;20024;-44
2022/06/20 03:05:56;;;;;;;22.67;6.45;;;;;;;10.86;95.57;101209.59;5094718;28;20089;-45
2022/06/20 03:08:21;;;;;;;29.70;6.45;;;;;;;10.87;95.33;101211.31;5094552;28;20028;-45
2022/06/20 03:10:49;;;;;;;20.83;6.50;;;;;;;10.87;95.80;101208.72;5093762;28;20022;-44
2022/06/20 03:13:15;;;;;;;;;;;;;;;10.93;94.58;101205.50;5094670;28;20035;-46
2022/06/20 03:15:43;;;;;;;27.30;6.82;;;;;;;10.89;94.83;101209.66;5094696;28;19926;-45
2022/06/20 03:18:13;;;;;;;25.33;6.63;;;;;;;10.92;94.60;101214.06;5093568;28;20065;-47
2022/06/20 03:20:39;;;;;;;20.55;6.70;;;;;;;10.92;94.87;101221.78;5094429;28;20051;-46
2022/06/20 03:23:18;;;;;;;23.17;6.80;;;;;;;10.95;94.15;101219.31;5094101;28;20031;-46
2022/06/20 03:25:44;;;;;;;27.77;6.97;;;;;;;10.94;94.32;101227.88;5093614;28;20039;-44
2022/06/20 03:28:19;;;;;;;29.90;7.32;;;;;;;10.94;94.72;101233.91;5094113;28;20024;-45
2022/06/20 03:30:45;;;;;;;25.55;7.13;;;;;;;10.93;94.48;101239.88;5093565;28;20090;-46
2022/06/20 03:33:13;;;;;;;29.77;7.35;;;;;;;10.94;94.63;101259.69;5093837;28;20052;-45
2022/06/20 03:35:44;;;;;;;30.02;7.18;;;;;;;10.96;94.58;101258.06;5093375;28;20406;-46
2022/06/20 03:38:12;;;;;;;22.77;6.60;;;;;;;10.96;95.30;101260.66;5093023;28;20103;-45
2022/06/20 03:40:39;;;;;;;22.17;6.85;;;;;;;10.96;95.44;101247.75;5094133;28;20028;-46
2022/06/20 03:43:06;;;;;;;19.92;6.25;;;;;;;10.97;95.36;101258.94;5093788;28;20470;-45
2022/06/20 03:45:37;;;;;;;21.48;6.30;;;;;;;10.99;95.43;101263.31;5093239;28;20078;-44
2022/06/20 03:48:19;;;;;;;20.50;7.45;;;;;;;11.03;94.60;101272.91;5093798;28;20039;-45
2022/06/20 03:50:57;;;;;;;29.27;7.68;;;;;;;11.11;94.61;101278.34;5093742;28;20028;-46
2022/06/20 03:53:29;;;;;;;17.88;6.90;;;;;;;11.18;95.17;101293.22;5093156;28;20028;-45
2022/06/20 03:56:05;;;;;;;20.77;7.68;;;;;;;11.25;94.99;101302.03;5093739;28;20109;-44
2022/06/20 03:58:37;;;;;;;22.88;7.43;;;;;;;11.31;95.52;101307.41;5093259;28;20523;-47
2022/06/20 04:01:15;;;;;;;22.58;7.30;;;;;;;11.37;95.22;101309.31;5093286;28;20028;-45
2022/06/20 04:04:08;;;;;;;26.65;7.82;;;;;;;11.42;95.37;101307.75;5093781;28;20039;-46
2022/06/20 04:06:50;;;;;;;30.40;8.48;;;;;;;11.48;95.75;101304.53;5068933;28;20043;-44
2022/06/20 04:12:21;;;;;;;22.77;7.20;;;;;;;11.57;95.59;101309.97;5093477;28;20038;-45
2022/06/20 04:14:57;;;;;;;29.55;7.72;;;;;;;11.63;96.03;101319.63;5092812;28;20185;-45
2022/06/20 04:20:33;;;;;;;20.48;7.22;;;;;;;11.69;95.83;101322.41;5092673;28;20054;-45
2022/06/20 04:23:03;;;;;;;27.42;7.03;;;;;;;11.73;95.66;101331.16;5093188;28;20024;-44
2022/06/20 04:25:37;;;;;;;19.83;6.93;;;;;;;11.76;96.15;101337.28;5093272;28;20020;-45
2022/06/20 04:28:26;;;;;;;19.30;6.72;;;;;;;11.80;95.42;101331.38;5092389;28;20107;-44
2022/06/20 04:31:02;;;;;;;23.42;7.60;;;;;;;11.86;95.88;101344.50;5083093;28;20464;-45
2022/06/20 04:33:39;;;;;;;24.40;7.10;;;;;;;11.90;95.18;101345.47;5093201;28;20124;-44
2022/06/20 04:36:24;;;;;;;24.80;6.13;;;;;;;11.96;95.36;101342.25;5092547;28;20020;-45
2022/06/20 04:39:09;;;;;;;17.58;6.05;;;;;;;12.00;95.36;101342.38;5092863;28;20459;-45
2022/06/20 04:41:49;;;;;;;22.05;6.20;;;;;;;12.06;95.51;101343.41;5092390;28;20104;-44
2022/06/20 04:44:43;;;;;;;15.55;6.25;;;;;;;12.16;94.98;101353.19;5092988;28;20024;-45
2022/06/20 04:47:32;;;;;;;17.83;6.07;;;;;;;12.22;94.74;101357.69;5092601;28;20017;-45
2022/06/20 04:49:58;;;;;;;19.17;6.75;;;;;;;12.28;94.60;101351.00;5080812;28;20043;-45
2022/06/20 04:52:26;;;;;;;25.33;6.10;;;;;;;12.33;94.13;101366.63;5092749;28;20031;-45
2022/06/20 04:54:54;;;;;;;29.77;6.03;;;;;;;12.41;93.51;101362.59;5092035;28;20024;-45
2022/06/20 04:57:20;;;;;;;31.95;5.82;;;;;;;12.52;93.14;101362.91;5092603;28;20147;-45
2022/06/20 04:59:45;;;;;;;18.67;5.53;;;;;;;12.58;92.67;101372.56;5093118;28;20035;-45
2022/06/20 05:02:19;;;;;;;16.98;5.78;;;;;;;12.71;93.34;101374.66;5091589;28;20036;-45
2022/06/20 05:04:47;;;;;;;23.70;5.30;;;;;;;12.79;92.44;101361.97;5092765;28;20417;-45
2022/06/20 05:07:20;;;;;;;25.75;6.00;;;;;;;12.85;92.53;101375.94;5092530;28;20151;-45
2022/06/20 05:10:17;;;;;;;27.42;6.38;;;;;;;12.87;91.88;101363.03;5092047;28;20032;-45
2022/06/20 05:12:58;;;;;;;29.45;5.80;;;;;;;12.90;91.87;101370.91;5092964;28;20028;-45
2022/06/20 05:15:48;;;;;;;21.98;6.28;;;;;;;12.90;92.01;101373.50;5092693;28;20103;-46
2022/06/20 05:18:34;;;;;;;31.00;6.30;;;;;;;12.88;91.24;101382.91;5091688;28;20020;-46
2022/06/20 05:21:22;;;;;;;25.75;6.40;;;;;;;12.84;90.88;101381.94;5092544;28;20115;-47
2022/06/20 05:23:52;;;;;;;21.48;6.65;;;;;;;12.77;90.29;101380.03;5091988;28;20032;-45
2022/06/20 05:26:21;;;;;;;30.98;5.97;;;;;;;12.74;90.22;101385.09;5092480;28;20383;-45
2022/06/20 05:28:49;;;;;;;22.92;5.80;;;;;;;12.73;90.46;101392.81;5092478;28;20027;-44
2022/06/20 05:31:19;;;;;;;24.73;6.43;;;;;;;12.73;91.17;101398.88;5091819;28;20073;-47
2022/06/20 05:33:55;;;;;;;22.23;6.03;;;;;;;12.76;90.87;101387.75;5092413;28;20455;-45
2022/06/20 05:36:35;;;;;;;32.92;6.00;;;;;;;12.78;90.89;101379.19;5092331;28;20444;-49
2022/06/20 05:39:11;;;;;;;23.35;5.63;;;;;;;12.79;90.32;101380.94;5091465;28;20024;-46
2022/06/20 05:41:39;;;;;;;22.80;6.97;;;;;;;12.80;89.43;101380.09;5092573;28;20077;-46
2022/06/20 05:44:05;;;;;;;;;;;;;;;12.90;89.44;101380.38;5092036;28;20103;-49
2022/06/20 05:46:42;;;;;;;21.77;6.63;;;;;;;12.93;90.27;101380.47;5092391;28;19999;-46
2022/06/20 05:49:25;;;;;;;18.30;6.57;;;;;;;12.97;89.43;101377.13;5092058;28;20051;-45
2022/06/20 05:51:53;;;;;;;21.70;6.32;;;;;;;12.99;89.25;101375.47;5091619;28;20032;-46
2022/06/20 05:54:27;;;;;;;24.23;7.03;;;;;;;13.03;89.85;101372.13;5092254;28;20106;-46
2022/06/20 05:57:00;;;;;;;23.58;7.47;;;;;;;13.07;88.89;101384.31;5092105;28;20039;-45
2022/06/20 05:59:46;;;;;;;23.75;6.70;;;;;;;13.21;88.73;101389.00;5094257;28;20099;-47
2022/06/20 06:02:22;;;;;;;26.02;7.43;;;;;;;13.42;87.44;101388.75;5095725;28;20038;-47
2022/06/20 06:05:12;;;;;;;26.45;6.95;;;;;;;13.60;88.37;101401.31;5095788;28;20497;-47
2022/06/20 06:07:44;;;;;;;23.75;7.13;;;;;;;13.71;86.92;101399.88;5095433;28;20040;-45
2022/06/20 06:10:32;;;;;;;30.02;7.93;;;;;;;13.83;86.92;101404.47;5095406;28;20032;-45
2022/06/20 06:13:03;;;;;;;24.25;7.25;;;;;;;13.86;85.34;101408.84;5094810;28;20455;-49
2022/06/20 06:15:38;;;;;;;22.85;6.45;;;;;;;13.86;84.23;101406.28;5095579;28;20092;-44
2022/06/20 06:18:09;;;;;;;25.45;6.65;;;;;;;13.81;84.80;101395.78;5095536;28;20020;-45
2022/06/20 06:20:37;;;;;;;20.65;6.78;;;;;;;13.73;83.95;101403.34;5094687;28;20073;-46
2022/06/20 06:23:07;;;;;;;21.35;6.32;;;;;;;13.66;84.62;101406.66;5095219;28;20024;-46
2022/06/20 06:25:36;;;;;;;22.75;6.55;;;;;;;13.59;84.11;101409.91;5095569;28;20081;-46
2022/06/20 06:28:24;;;;;;;17.85;6.13;;;;;;;13.58;84.44;101402.97;5094709;28;20016;-45
2022/06/20 06:31:01;;;;;;;;;;;;;;;13.62;84.94;101409.97;5095580;28;20054;-45
2022/06/20 06:33:58;;;;;;;24.67;6.65;;;;;;;13.47;84.46;101406.13;5094436;28;20058;-47
2022/06/20 06:36:31;;;;;;;27.42;6.72;;;;;;;13.32;84.73;101395.34;5095323;28;20063;-46
2022/06/20 06:39:19;;;;;;;22.45;6.35;;;;;;;13.27;85.47;101402.09;5095053;28;20020;-45
2022/06/20 06:41:47;;;;;;;23.17;7.20;;;;;;;13.30;84.17;101408.25;5093921;28;20094;-45
2022/06/20 06:44:31;;;;;;;25.05;6.53;;;;;;;13.40;86.05;101403.34;5094966;28;20031;-46
2022/06/20 06:46:57;;;;;;;21.23;6.90;;;;;;;13.43;84.78;101414.66;5094981;28;20028;-48
2022/06/20 06:49:43;;;;;;;21.75;6.03;;;;;;;13.48;82.55;101413.06;5094079;28;20472;-49
2022/06/20 06:52:17;;;;;;;21.35;6.80;;;;;;;13.59;82.71;101422.84;5094540;28;20570;-47
2022/06/20 06:54:42;;;;;;;22.25;6.68;;;;;;;13.76;83.48;101434.53;5094065;28;20478;-49
2022/06/20 06:57:38;;;;;;;18.05;6.10;;;;;;;13.91;82.45;101434.03;5094565;28;20083;-45
2022/06/20 07:00:03;;;;;;;19.33;5.18;;;;;;;14.00;80.58;101431.66;5094508;28;20428;-49
2022/06/20 07:02:30;;;;;;;22.57;5.90;;;;;;;14.03;79.88;101430.88;5093792;28;20052;-46
2022/06/20 07:05:19;;;;;;;15.60;5.90;;;;;;;14.18;81.06;101442.44;5094770;28;20055;-47
2022/06/20 07:07:51;;;;;;;19.13;5.53;;;;;;;14.39;80.22;101442.97;5094573;28;20456;-45
2022/06/20 07:10:26;;;;;;;16.70;5.50;;;;;;;14.57;78.61;101441.66;5092707;28;20391;-47
2022/06/20 07:12:58;;;;;;;19.48;6.38;;;;;;;14.63;77.81;101445.25;5094213;28;20025;-49
2022/06/20 07:15:24;;;;;;;19.70;5.80;;;;;;;14.71;79.76;101455.84;5094675;28;20046;-46
2022/06/20 07:18:15;;;;;;;13.85;5.63;;;;;;;14.68;78.67;101453.19;5093630;28;20374;-48
2022/06/20 07:20:42;;;;;;;22.10;5.90;;;;;;;14.59;77.63;101460.69;5094402;28;20157;-48
2022/06/20 07:23:14;;;;;;;19.83;5.85;;;;;;;14.66;75.85;101457.44;5093246;28;20047;-46
2022/06/20 07:25:42;;;;;;;17.95;6.10;;;;;;;14.80;78.25;101456.03;5094260;28;20383;-47
2022/06/20 07:28:15;;;;;;;11.52;5.10;;;;;;;14.92;76.22;101459.75;5093913;28;20539;-49
2022/06/20 07:30:45;;;;;;;20.65;5.55;;;;;;;14.94;74.44;101458.06;5093339;28;20036;-49
2022/06/20 07:33:21;;;;;;;19.70;6.28;;;;;;;14.91;73.77;101460.56;5093823;28;20076;-45
2022/06/20 07:35:51;;;;;;;23.48;5.10;;;;;;;14.90;74.63;101458.81;5094015;28;20053;-47
2022/06/20 07:38:34;;;;;;;14.52;4.88;;;;;;;14.99;73.24;101451.25;5093469;28;20063;-47
2022/06/20 07:41:07;;;;;;;18.63;5.72;;;;;;;15.21;71.32;101446.47;5093924;28;20028;-47
2022/06/20 07:43:41;;;;;;;23.20;5.55;;;;;;;15.44;72.92;101447.81;5093839;28;20479;-46
2022/06/20 07:46:12;;;;;;;23.25;5.55;;;;;;;15.62;71.95;101454.19;5093597;28;20105;-48
2022/06/20 07:48:41;;;;;;;15.95;5.57;;;;;;;15.70;72.05;101452.63;5094133;28;20020;-50
2022/06/20 07:51:17;;;;;;;20.75;5.22;;;;;;;15.83;72.16;101458.06;5093012;28;20032;-48
2022/06/20 07:54:04;;;;;;;19.42;5.88;;;;;;;16.07;72.29;101461.09;5093739;28;20511;-47
2022/06/20 07:56:44;;;;;;;19.33;4.05;;;;;;;16.14;66.00;101462.09;5093888;28;20032;-47
2022/06/20 07:59:33;;;;;;;16.15;4.97;;;;;;;15.98;66.75;101468.72;5092547;28;20051;-48
2022/06/20 08:02:16;;;;;;;10.00;3.50;;;;;;;15.82;63.87;101469.34;5093505;28;20040;-47
2022/06/20 08:04:44;;;;;;;15.65;4.10;;;;;;;15.69;64.15;101465.59;5092910;28;20044;-45
2022/06/20 08:07:34;;;;;;;16.83;5.07;;;;;;;15.76;67.78;101470.94;5093227;28;20476;-46
2022/06/20 08:10:12;;;;;;;17.67;5.10;;;;;;;15.75;66.49;101470.88;5093521;28;20027;-48
2022/06/20 08:13:02;;;;;;;19.92;4.80;;;;;;;15.80;66.22;101480.53;5092856;28;20157;-48
2022/06/20 08:15:33;;;;;;;12.90;4.32;;;;;;;15.87;65.04;101473.75;5093221;28;20062;-47
2022/06/20 08:17:59;;;;;;;16.17;5.32;;;;;;;15.87;64.44;101478.06;5093292;28;20034;-49
2022/06/20 08:20:30;;;;;;;14.07;4.57;;;;;;;15.75;63.67;101468.28;5092362;28;20035;-49
2022/06/20 08:23:07;;;;;;;11.13;3.75;;;;;;;15.84;61.26;101475.41;5093182;28;20028;-46
2022/06/20 08:25:37;;;;;;;15.75;4.53;;;;;;;16.13;62.75;101473.31;5093312;28;20039;-48
2022/06/20 08:28:29;;;;;;;18.95;4.90;;;;;;;16.45;64.79;101471.25;5092465;28;20111;-51
2022/06/20 08:31:03;;;;;;;16.92;5.05;;;;;;;16.85;62.16;101468.34;5093350;28;20028;-47
2022/06/20 08:33:36;;;;;;;13.35;4.72;;;;;;;17.25;60.52;101473.22;5092353;28;20114;-46
2022/06/20 08:36:18;;;;;;;14.27;5.30;;;;;;;17.55;60.79;101480.50;5092937;28;20035;-50
2022/06/20 08:38:56;;;;;;;17.17;4.60;;;;;;;17.62;59.70;101484.03;5093304;28;20024;-46
2022/06/20 08:41:48;;;;;;;10.82;4.32;;;;;;;17.53;58.86;101484.84;5092179;28;20412;-51
2022/06/20 08:44:47;;;;;;;18.80;4.63;;;;;;;17.31;59.93;101488.91;5092820;28;20024;-49
2022/06/20 08:47:53;;;;;;;20.83;5.25;;;;;;;17.14;61.36;101487.84;5092206;28;20028;-48
2022/06/20 08:50:49;;;;;;;17.63;4.68;;;;;;;16.96;60.26;101489.34;5092932;28;20032;-48
2022/06/20 08:53:36;;;;;;;20.77;4.50;;;;;;;16.76;60.89;101495.13;5092962;28;20085;-47
2022/06/20 08:56:19;;;;;;;20.92;5.28;;;;;;;16.49;63.39;101508.59;5092233;28;20074;-50
2022/06/20 08:58:53;;;;;;;17.77;5.32;;;;;;;16.22;63.62;101515.09;5092697;28;20455;-50
2022/06/20 09:01:38;;;;;;;18.35;4.65;;;;;;;16.24;63.60;101509.91;5092007;28;20476;-46
2022/06/20 09:04:20;;;;;;;15.60;5.00;;;;;;;16.74;63.44;101504.63;5092824;28;20028;-47
2022/06/20 09:07:20;;;;;;;15.10;5.28;;;;;;;17.06;62.14;101508.56;5092895;28;20028;-48
2022/06/20 09:10:15;;;;;;;21.90;5.50;;;;;;;16.91;61.42;101506.63;5092281;28;20039;-47
2022/06/20 09:13:09;;;;;;;17.15;4.90;;;;;;;16.63;62.01;101519.22;5092837;28;20024;-49
2022/06/20 09:15:51;;;;;;;19.38;5.28;;;;;;;16.62;62.43;101518.31;5091946;28;20063;-47
2022/06/20 09:18:33;;;;;;;18.08;5.30;;;;;;;16.79;62.05;101523.78;5092702;28;20030;-46
2022/06/20 09:21:15;;;;;;;16.83;4.00;;;;;;;16.88;58.15;101520.44;5092521;28;20101;-48
2022/06/20 09:24:12;;;;;;;15.63;4.50;;;;;;;16.90;59.35;101520.47;5091915;28;20103;-49
2022/06/20 09:26:44;;;;;;;19.55;4.47;;;;;;;17.19;58.28;101522.63;5092823;28;20059;-49
2022/06/20 09:29:31;;;;;;;13.15;4.15;;;;;;;17.52;56.72;101522.19;5091713;28;20024;-49
2022/06/20 09:32:11;;;;;;;15.45;4.05;;;;;;;17.60;57.02;101519.66;5092542;28;20028;-48
2022/06/20 09:34:51;;;;;;;15.43;5.10;;;;;;;17.72;56.71;101519.78;5095665;28;20036;-50
2022/06/20 09:37:45;;;;;;;17.65;4.35;;;;;;;18.22;53.44;101520.31;5095541;28;20392;-48
2022/06/20 09:40:41;;;;;;;14.60;4.60;;;;;;;19.03;54.53;101521.75;5096076;28;20126;-51
2022/06/20 09:43:25;;;;;;;18.97;5.17;;;;;;;19.69;55.78;101524.66;5096185;28;20103;-47
2022/06/20 09:46:01;;;;;;;20.48;5.40;;;;;;;19.81;51.22;101525.56;5096154;28;20032;-50
2022/06/20 09:48:39;;;;;;;15.75;4.65;;;;;;;19.62;50.15;101512.41;5096233;28;20039;-49
2022/06/20 09:51:22;;;;;;;19.67;4.93;;;;;;;19.44;52.80;101528.91;5095202;28;20024;-48
2022/06/20 09:54:02;;;;;;;22.42;5.57;;;;;;;19.56;49.69;101517.63;5096271;28;20051;-49
2022/06/20 09:56:43;;;;;;;22.42;6.47;;;;;;;20.10;51.21;101519.50;5096110;28;20016;-50
2022/06/20 09:59:25;;;;;;;16.48;4.90;;;;;;;20.55;48.60;101515.13;5094811;28;20064;-48
2022/06/20 10:02:33;;;;;;;19.73;4.68;;;;;;;20.57;48.47;101510.78;5095965;28;20028;-49
2022/06/20 10:05:13;;;;;;;21.25;6.63;;;;;;;20.13;49.52;101519.50;5067692;28;20392;-47
2022/06/20 10:07:49;;;;;;;21.27;5.75;;;;;;;20.05;48.77;101517.75;5098450;28;20114;-47
2022/06/20 10:10:22;;;;;;;17.10;4.95;;;;;;;20.81;47.58;101515.13;5095636;28;20111;-46
2022/06/20 10:12:51;;;;;;;21.75;5.82;;;;;;;21.29;45.87;101517.59;5095155;28;20031;-47
2022/06/20 10:15:54;;;;;;;15.88;5.15;;;;;;;21.30;48.72;101521.94;5095610;28;20127;-50
2022/06/20 10:18:30;;;;;;;22.08;5.60;;;;;;;20.66;47.22;101525.59;5094687;28;20030;-47
2022/06/20 10:21:20;;;;;;;17.98;5.63;;;;;;;20.66;47.59;101536.94;5095568;28;20032;-48
2022/06/20 10:23:54;;;;;;;20.83;6.43;;;;;;;21.20;45.77;101530.72;5095651;28;20028;-49
2022/06/20 10:26:28;;;;;;;18.58;5.70;;;;;;;21.42;46.31;101534.16;5094558;28;20456;-47
2022/06/20 10:29:20;;;;;;;24.67;5.90;;;;;;;21.26;45.63;101535.94;5095465;28;20124;-44
2022/06/20 10:32:09;;;;;;;17.15;4.60;;;;;;;22.56;46.85;101537.78;5095391;28;20033;-45
2022/06/20 10:35:18;;;;;;;14.98;4.70;;;;;;;24.28;42.13;101548.81;5094602;28;20111;-47
2022/06/20 10:38:06;;;;;;;15.25;4.32;;;;;;;24.77;39.74;101541.84;5095635;28;20028;-45
2022/06/20 10:41:09;;;;;;;16.25;4.40;;;;;;;25.08;38.53;101541.25;5094434;28;20028;-51
2022/06/20 10:43:43;;;;;;;14.32;4.70;;;;;;;25.92;36.95;101545.63;5095121;28;20039;-49
2022/06/20 10:46:17;;;;;;;15.48;4.80;;;;;;;25.66;34.50;101554.16;5094938;28;20032;-50
2022/06/20 10:49:01;;;;;;;13.75;4.80;;;;;;;25.14;37.11;101556.97;5094471;28;20020;-49
2022/06/20 10:51:43;;;;;;;16.02;4.40;;;;;;;25.14;37.50;101562.22;5094811;28;20024;-48
2022/06/20 10:54:14;;;;;;;13.48;4.60;;;;;;;25.18;38.90;101557.75;5093878;28;20032;-45
2022/06/20 10:57:15;;;;;;;15.80;4.88;;;;;;;24.40;38.41;101568.81;5095018;28;20035;-46
2022/06/20 10:59:46;;;;;;;17.85;4.82;;;;;;;24.75;38.09;101560.31;5094757;28;20044;-49
2022/06/20 11:02:20;;;;;;;17.05;5.70;;;;;;;25.17;37.10;101569.22;5093811;28;20111;-50
2022/06/20 11:05:04;;;;;;;16.90;4.95;;;;;;;25.48;36.19;101572.09;5094676;28;20487;-46
2022/06/20 11:07:52;;;;;;;19.67;4.47;;;;;;;26.39;36.26;101569.16;5094598;28;20069;-45
2022/06/20 11:10:46;;;;;;;12.15;4.18;;;;;;;26.94;35.73;101561.59;5094510;28;20058;-45
2022/06/20 11:13:30;;;;;;;12.43;4.00;;;;;;;26.93;33.72;101573.06;5094517;28;20052;-49
2022/06/20 11:16:06;;;;;;;19.67;4.90;;;;;;;25.93;34.70;101569.34;5093729;28;20032;-49
2022/06/20 11:18:43;;;;;;;15.63;4.35;;;;;;;24.92;34.27;101567.03;5094548;28;20020;-48
2022/06/20 11:21:40;;;;;;;16.80;4.35;;;;;;;23.89;37.17;101572.22;5094282;28;20067;-45
2022/06/20 11:24:17;;;;;;;;;;;;;;;23.75;37.93;101575.03;5094634;28;20059;-50
2022/06/20 11:27:04;;;;;;;16.42;4.35;;;;;;;23.71;38.01;101578.59;5094301;28;19912;-49
2022/06/20 11:30:01;;;;;;;16.63;4.13;;;;;;;25.52;35.88;101565.84;5093626;28;20035;-45
2022/06/20 11:32:53;;;;;;;11.70;4.03;;;;;;;26.26;34.88;101566.84;5093967;28;20483;-49
2022/06/20 11:35:43;;;;;;;14.70;4.60;;;;;;;26.34;33.97;101568.41;5094013;28;20067;-46
2022/06/20 11:38:42;;;;;;;13.25;3.90;;;;;;;25.83;37.05;101573.09;5094021;28;20032;-48
2022/06/20 11:41:14;;;;;;;17.30;4.82;;;;;;;25.33;36.96;101572.41;5093688;28;20031;-48
2022/06/20 11:44:06;;;;;;;14.27;4.20;;;;;;;26.18;36.36;101571.44;5093276;28;20031;-47
2022/06/20 11:46:57;;;;;;;13.38;4.00;;;;;;;27.47;35.87;101570.72;5094332;28;20034;-46
2022/06/20 11:49:35;;;;;;;16.25;3.95;;;;;;;28.49;29.97;101559.53;5093720;28;20032;-45
2022/06/20 11:52:06;;;;;;;16.67;3.70;;;;;;;29.07;28.19;101573.38;5092911;28;20593;-45
2022/06/20 11:55:13;;;;;;;15.30;4.07;;;;;;;29.43;28.96;101565.94;5093950;28;20024;-46
2022/06/20 11:57:43;;;;;;;12.95;4.10;;;;;;;27.74;30.04;101572.50;5092426;28;20488;-49
2022/06/20 12:00:29;;;;;;;17.50;3.72;;;;;;;26.47;32.72;101564.56;5093457;28;20036;-48
2022/06/20 12:03:15;;;;;;;15.18;4.18;;;;;;;25.52;33.17;101578.19;5093776;28;20028;-47
2022/06/20 12:05:59;;;;;;;12.80;3.58;;;;;;;24.76;34.87;101566.44;5092794;28;20510;-48
2022/06/20 12:08:33;;;;;;;15.38;4.10;;;;;;;24.99;33.18;101568.66;5093552;28;20039;-48
2022/06/20 12:11:10;;;;;;;14.18;3.75;;;;;;;26.02;32.37;101564.78;5092879;28;20081;-46
2022/06/20 12:13:45;;;;;;;;;;;;;;;27.08;33.64;101569.13;5094089;28;20052;-47